sensor_id;sensor_type;location;lat;lon;timestamp;P1;durP1;ratioP1;P2;durP2;ratioP2
44774;SDS011;31340;51.402;0.016;2022-09-17T00:01:23;6.60;;;1.60;;
44774;SDS011;31340;51.402;0.016;2022-09-17T00:03:54;7.07;;;1.40;;
44774;SDS011;31340;51.402;0.016;2022-09-17T00:06:23;8.67;;;2.00;;
44774;SDS011;31340;51.402;0.016;2022-09-17T00:08:52;3.90;;;1.10;;
44774;SDS011;31340;51.402;0.016;2022-09-17T00:11:21;2.95;;;1.00;;
44774;SDS011;31340;51.402;0.016;2022-09-17T00:13:51;6.22;;;1.30;;
44774;SDS011;31340;51.402;0.016;2022-09-17T00:18:50;6.57;;;1.63;;
44774;SDS011;31340;51.402;0.016;2022-09-17T00:21:18;5.28;;;1.10;;
44774;SDS011;31340;51.402;0.016;2022-09-17T00:23:46;5.63;;;1.40;;
44774;SDS011;31340;51.402;0.016;2022-09-17T00:26:13;5.13;;;1.20;;
44774;SDS011;31340;51.402;0.016;2022-09-17T00:28:41;7.32;;;1.40;;
44774;SDS011;31340;51.402;0.016;2022-09-17T00:31:11;5.28;;;1.75;;
44774;SDS011;31340;51.402;0.016;2022-09-17T00:33:38;6.32;;;1.25;;
44774;SDS011;31340;51.402;0.016;2022-09-17T00:36:06;5.90;;;1.20;;
44774;SDS011;31340;51.402;0.016;2022-09-17T00:38:34;5.18;;;1.13;;
44774;SDS011;31340;51.402;0.016;2022-09-17T00:41:02;5.20;;;1.13;;
44774;SDS011;31340;51.402;0.016;2022-09-17T00:43:40;7.22;;;1.50;;
44774;SDS011;31340;51.402;0.016;2022-09-17T00:46:21;5.45;;;1.27;;
44774;SDS011;31340;51.402;0.016;2022-09-17T00:49:25;6.90;;;1.52;;
44774;SDS011;31340;51.402;0.016;2022-09-17T00:54:27;3.67;;;1.20;;
44774;SDS011;31340;51.402;0.016;2022-09-17T00:56:55;4.07;;;1.45;;
44774;SDS011;31340;51.402;0.016;2022-09-17T00:59:24;3.72;;;1.27;;
44774;SDS011;31340;51.402;0.016;2022-09-17T01:01:52;7.45;;;1.33;;
44774;SDS011;31340;51.402;0.016;2022-09-17T01:04:21;7.03;;;1.10;;
44774;SDS011;31340;51.402;0.016;2022-09-17T01:06:58;5.75;;;1.20;;
44774;SDS011;31340;51.402;0.016;2022-09-17T01:15:28;7.32;;;1.30;;
44774;SDS011;31340;51.402;0.016;2022-09-17T01:24:00;5.80;;;1.30;;
44774;SDS011;31340;51.402;0.016;2022-09-17T01:32:18;5.45;;;1.00;;
44774;SDS011;31340;51.402;0.016;2022-09-17T01:35:03;5.88;;;1.10;;
44774;SDS011;31340;51.402;0.016;2022-09-17T01:37:36;10.70;;;1.50;;
44774;SDS011;31340;51.402;0.016;2022-09-17T01:40:30;4.15;;;0.75;;
44774;SDS011;31340;51.402;0.016;2022-09-17T01:45:57;3.75;;;0.90;;
44774;SDS011;31340;51.402;0.016;2022-09-17T01:48:32;7.03;;;1.15;;
44774;SDS011;31340;51.402;0.016;2022-09-17T01:51:11;4.32;;;1.20;;
44774;SDS011;31340;51.402;0.016;2022-09-17T01:53:45;6.32;;;1.30;;
44774;SDS011;31340;51.402;0.016;2022-09-17T01:56:21;5.05;;;1.30;;
44774;SDS011;31340;51.402;0.016;2022-09-17T01:58:54;6.00;;;1.23;;
44774;SDS011;31340;51.402;0.016;2022-09-17T02:01:28;5.07;;;1.25;;
44774;SDS011;31340;51.402;0.016;2022-09-17T02:04:03;3.42;;;1.10;;
44774;SDS011;31340;51.402;0.016;2022-09-17T02:06:36;3.17;;;1.02;;
44774;SDS011;31340;51.402;0.016;2022-09-17T02:09:13;5.03;;;1.02;;
44774;SDS011;31340;51.402;0.016;2022-09-17T02:11:48;9.23;;;1.50;;
44774;SDS011;31340;51.402;0.016;2022-09-17T02:14:23;7.45;;;1.52;;
44774;SDS011;31340;51.402;0.016;2022-09-17T02:17:12;6.50;;;1.35;;
44774;SDS011;31340;51.402;0.016;2022-09-17T02:19:51;6.22;;;1.60;;
44774;SDS011;31340;51.402;0.016;2022-09-17T02:22:31;5.70;;;1.17;;
44774;SDS011;31340;51.402;0.016;2022-09-17T02:25:09;5.20;;;1.15;;
44774;SDS011;31340;51.402;0.016;2022-09-17T02:27:47;5.35;;;1.02;;
44774;SDS011;31340;51.402;0.016;2022-09-17T02:30:30;4.20;;;1.10;;
44774;SDS011;31340;51.402;0.016;2022-09-17T02:32:58;6.47;;;1.10;;
44774;SDS011;31340;51.402;0.016;2022-09-17T02:35:31;7.18;;;1.35;;
44774;SDS011;31340;51.402;0.016;2022-09-17T02:37:59;7.15;;;1.33;;
44774;SDS011;31340;51.402;0.016;2022-09-17T02:40:28;3.88;;;1.42;;
44774;SDS011;31340;51.402;0.016;2022-09-17T02:54:08;7.55;;;1.70;;
44774;SDS011;31340;51.402;0.016;2022-09-17T02:56:48;9.25;;;2.00;;
44774;SDS011;31340;51.402;0.016;2022-09-17T03:02:01;3.67;;;1.33;;
44774;SDS011;31340;51.402;0.016;2022-09-17T03:04:38;9.35;;;2.40;;
44774;SDS011;31340;51.402;0.016;2022-09-17T03:07:06;2.60;;;1.65;;
44774;SDS011;31340;51.402;0.016;2022-09-17T03:09:35;7.70;;;1.90;;
44774;SDS011;31340;51.402;0.016;2022-09-17T03:12:03;5.63;;;1.98;;
44774;SDS011;31340;51.402;0.016;2022-09-17T03:14:31;6.30;;;1.80;;
44774;SDS011;31340;51.402;0.016;2022-09-17T03:16:59;8.93;;;2.10;;
44774;SDS011;31340;51.402;0.016;2022-09-17T03:19:26;7.88;;;2.28;;
44774;SDS011;31340;51.402;0.016;2022-09-17T03:21:54;8.90;;;2.10;;
44774;SDS011;31340;51.402;0.016;2022-09-17T03:24:21;6.00;;;1.80;;
44774;SDS011;31340;51.402;0.016;2022-09-17T03:26:49;8.30;;;2.15;;
44774;SDS011;31340;51.402;0.016;2022-09-17T03:29:16;7.50;;;2.53;;
44774;SDS011;31340;51.402;0.016;2022-09-17T03:31:44;5.43;;;2.08;;
44774;SDS011;31340;51.402;0.016;2022-09-17T03:34:11;7.30;;;2.03;;
44774;SDS011;31340;51.402;0.016;2022-09-17T03:36:39;6.70;;;2.00;;
44774;SDS011;31340;51.402;0.016;2022-09-17T03:39:06;7.18;;;1.88;;
44774;SDS011;31340;51.402;0.016;2022-09-17T03:41:34;5.10;;;1.80;;
44774;SDS011;31340;51.402;0.016;2022-09-17T03:44:01;5.85;;;1.92;;
44774;SDS011;31340;51.402;0.016;2022-09-17T03:46:29;6.78;;;2.25;;
44774;SDS011;31340;51.402;0.016;2022-09-17T03:48:57;5.70;;;1.90;;
44774;SDS011;31340;51.402;0.016;2022-09-17T03:51:24;5.55;;;2.15;;
44774;SDS011;31340;51.402;0.016;2022-09-17T03:53:52;8.63;;;1.95;;
44774;SDS011;31340;51.402;0.016;2022-09-17T03:56:19;11.32;;;1.95;;
44774;SDS011;31340;51.402;0.016;2022-09-17T03:58:47;6.60;;;2.25;;
44774;SDS011;31340;51.402;0.016;2022-09-17T04:01:14;5.72;;;1.67;;
44774;SDS011;31340;51.402;0.016;2022-09-17T04:03:42;4.72;;;1.90;;
44774;SDS011;31340;51.402;0.016;2022-09-17T04:06:11;7.57;;;2.03;;
44774;SDS011;31340;51.402;0.016;2022-09-17T04:08:38;6.75;;;1.67;;
44774;SDS011;31340;51.402;0.016;2022-09-17T04:11:06;4.70;;;1.75;;
44774;SDS011;31340;51.402;0.016;2022-09-17T04:13:33;5.97;;;2.13;;
44774;SDS011;31340;51.402;0.016;2022-09-17T04:16:02;6.88;;;1.92;;
44774;SDS011;31340;51.402;0.016;2022-09-17T04:18:30;7.13;;;2.00;;
44774;SDS011;31340;51.402;0.016;2022-09-17T04:20:57;6.18;;;2.10;;
44774;SDS011;31340;51.402;0.016;2022-09-17T04:23:25;4.75;;;1.90;;
44774;SDS011;31340;51.402;0.016;2022-09-17T04:25:52;6.43;;;1.73;;
44774;SDS011;31340;51.402;0.016;2022-09-17T04:28:20;5.70;;;1.80;;
44774;SDS011;31340;51.402;0.016;2022-09-17T04:30:47;7.03;;;1.85;;
44774;SDS011;31340;51.402;0.016;2022-09-17T04:33:15;8.30;;;2.33;;
44774;SDS011;31340;51.402;0.016;2022-09-17T04:35:43;9.43;;;2.08;;
44774;SDS011;31340;51.402;0.016;2022-09-17T04:38:11;4.95;;;1.48;;
44774;SDS011;31340;51.402;0.016;2022-09-17T04:40:44;8.13;;;2.13;;
44774;SDS011;31340;51.402;0.016;2022-09-17T04:43:12;4.68;;;1.45;;
44774;SDS011;31340;51.402;0.016;2022-09-17T04:45:40;8.23;;;2.00;;
44774;SDS011;31340;51.402;0.016;2022-09-17T04:48:07;8.50;;;1.83;;
44774;SDS011;31340;51.402;0.016;2022-09-17T04:50:35;7.13;;;2.20;;
44774;SDS011;31340;51.402;0.016;2022-09-17T04:53:02;7.05;;;1.83;;
44774;SDS011;31340;51.402;0.016;2022-09-17T04:55:30;4.43;;;1.73;;
44774;SDS011;31340;51.402;0.016;2022-09-17T04:57:57;7.60;;;2.00;;
44774;SDS011;31340;51.402;0.016;2022-09-17T05:00:25;5.80;;;1.70;;
44774;SDS011;31340;51.402;0.016;2022-09-17T05:02:53;5.07;;;2.22;;
44774;SDS011;31340;51.402;0.016;2022-09-17T05:05:21;4.65;;;2.05;;
44774;SDS011;31340;51.402;0.016;2022-09-17T05:07:49;6.35;;;2.20;;
44774;SDS011;31340;51.402;0.016;2022-09-17T05:10:17;6.68;;;2.28;;
44774;SDS011;31340;51.402;0.016;2022-09-17T05:12:50;4.70;;;1.95;;
44774;SDS011;31340;51.402;0.016;2022-09-17T05:15:19;6.13;;;2.50;;
44774;SDS011;31340;51.402;0.016;2022-09-17T05:17:47;6.35;;;2.00;;
44774;SDS011;31340;51.402;0.016;2022-09-17T05:20:14;6.65;;;2.00;;
44774;SDS011;31340;51.402;0.016;2022-09-17T05:22:43;6.80;;;2.30;;
44774;SDS011;31340;51.402;0.016;2022-09-17T05:25:12;5.30;;;2.15;;
44774;SDS011;31340;51.402;0.016;2022-09-17T05:27:40;11.75;;;3.03;;
44774;SDS011;31340;51.402;0.016;2022-09-17T05:30:08;7.47;;;2.28;;
44774;SDS011;31340;51.402;0.016;2022-09-17T05:32:38;6.55;;;2.30;;
44774;SDS011;31340;51.402;0.016;2022-09-17T05:35:06;6.13;;;2.05;;
44774;SDS011;31340;51.402;0.016;2022-09-17T05:37:35;5.57;;;1.88;;
44774;SDS011;31340;51.402;0.016;2022-09-17T05:40:03;6.85;;;2.25;;
44774;SDS011;31340;51.402;0.016;2022-09-17T05:42:32;7.75;;;2.17;;
44774;SDS011;31340;51.402;0.016;2022-09-17T05:45:00;8.23;;;2.33;;
44774;SDS011;31340;51.402;0.016;2022-09-17T05:47:27;5.68;;;2.00;;
44774;SDS011;31340;51.402;0.016;2022-09-17T05:49:55;8.95;;;2.00;;
44774;SDS011;31340;51.402;0.016;2022-09-17T05:52:25;4.82;;;2.13;;
44774;SDS011;31340;51.402;0.016;2022-09-17T05:57:22;6.63;;;2.33;;
44774;SDS011;31340;51.402;0.016;2022-09-17T05:59:49;7.63;;;2.10;;
44774;SDS011;31340;51.402;0.016;2022-09-17T06:02:18;5.93;;;2.20;;
44774;SDS011;31340;51.402;0.016;2022-09-17T06:04:45;7.43;;;1.90;;
44774;SDS011;31340;51.402;0.016;2022-09-17T06:07:13;5.05;;;2.17;;
44774;SDS011;31340;51.402;0.016;2022-09-17T06:09:40;6.30;;;2.45;;
44774;SDS011;31340;51.402;0.016;2022-09-17T06:12:08;6.68;;;1.90;;
44774;SDS011;31340;51.402;0.016;2022-09-17T06:14:35;4.07;;;1.90;;
44774;SDS011;31340;51.402;0.016;2022-09-17T06:17:03;5.88;;;1.92;;
44774;SDS011;31340;51.402;0.016;2022-09-17T06:19:31;5.45;;;1.75;;
44774;SDS011;31340;51.402;0.016;2022-09-17T06:21:58;4.40;;;2.05;;
44774;SDS011;31340;51.402;0.016;2022-09-17T06:24:25;3.88;;;1.75;;
44774;SDS011;31340;51.402;0.016;2022-09-17T06:26:53;5.05;;;2.10;;
44774;SDS011;31340;51.402;0.016;2022-09-17T06:29:21;5.13;;;2.03;;
44774;SDS011;31340;51.402;0.016;2022-09-17T06:31:48;5.70;;;1.92;;
44774;SDS011;31340;51.402;0.016;2022-09-17T06:34:16;5.45;;;2.03;;
44774;SDS011;31340;51.402;0.016;2022-09-17T06:36:44;3.80;;;2.05;;
44774;SDS011;31340;51.402;0.016;2022-09-17T06:39:11;3.58;;;1.88;;
44774;SDS011;31340;51.402;0.016;2022-09-17T06:41:40;7.53;;;2.60;;
44774;SDS011;31340;51.402;0.016;2022-09-17T06:44:09;6.15;;;2.03;;
44774;SDS011;31340;51.402;0.016;2022-09-17T06:46:36;8.13;;;2.15;;
44774;SDS011;31340;51.402;0.016;2022-09-17T06:49:04;6.20;;;2.70;;
44774;SDS011;31340;51.402;0.016;2022-09-17T06:51:31;6.00;;;2.58;;
44774;SDS011;31340;51.402;0.016;2022-09-17T06:53:59;4.03;;;2.10;;
44774;SDS011;31340;51.402;0.016;2022-09-17T06:56:27;7.78;;;2.33;;
44774;SDS011;31340;51.402;0.016;2022-09-17T06:58:54;6.38;;;2.17;;
44774;SDS011;31340;51.402;0.016;2022-09-17T07:01:22;5.38;;;2.08;;
44774;SDS011;31340;51.402;0.016;2022-09-17T07:03:50;8.43;;;3.03;;
44774;SDS011;31340;51.402;0.016;2022-09-17T07:06:18;11.15;;;1.90;;
44774;SDS011;31340;51.402;0.016;2022-09-17T07:08:46;7.10;;;1.88;;
44774;SDS011;31340;51.402;0.016;2022-09-17T07:11:13;5.80;;;1.88;;
44774;SDS011;31340;51.402;0.016;2022-09-17T07:13:42;7.32;;;2.08;;
44774;SDS011;31340;51.402;0.016;2022-09-17T07:16:09;5.57;;;2.47;;
44774;SDS011;31340;51.402;0.016;2022-09-17T07:18:37;4.93;;;2.10;;
44774;SDS011;31340;51.402;0.016;2022-09-17T07:21:06;4.90;;;1.90;;
44774;SDS011;31340;51.402;0.016;2022-09-17T07:23:34;7.43;;;2.13;;
44774;SDS011;31340;51.402;0.016;2022-09-17T07:26:04;7.93;;;2.22;;
44774;SDS011;31340;51.402;0.016;2022-09-17T07:28:39;7.20;;;1.90;;
44774;SDS011;31340;51.402;0.016;2022-09-17T07:31:07;10.93;;;2.00;;
44774;SDS011;31340;51.402;0.016;2022-09-17T07:33:41;7.10;;;1.80;;
44774;SDS011;31340;51.402;0.016;2022-09-17T07:36:09;16.15;;;2.00;;
44774;SDS011;31340;51.402;0.016;2022-09-17T07:38:38;6.75;;;2.10;;
44774;SDS011;31340;51.402;0.016;2022-09-17T07:41:06;7.38;;;1.85;;
44774;SDS011;31340;51.402;0.016;2022-09-17T07:43:39;4.35;;;1.70;;
44774;SDS011;31340;51.402;0.016;2022-09-17T07:46:07;5.18;;;1.77;;
44774;SDS011;31340;51.402;0.016;2022-09-17T07:48:40;9.27;;;1.90;;
44774;SDS011;31340;51.402;0.016;2022-09-17T07:51:13;6.68;;;1.65;;
44774;SDS011;31340;51.402;0.016;2022-09-17T07:53:45;8.55;;;2.20;;
44774;SDS011;31340;51.402;0.016;2022-09-17T07:56:16;7.80;;;1.92;;
44774;SDS011;31340;51.402;0.016;2022-09-17T07:58:43;6.65;;;1.80;;
44774;SDS011;31340;51.402;0.016;2022-09-17T08:01:11;5.43;;;1.70;;
44774;SDS011;31340;51.402;0.016;2022-09-17T08:03:42;7.47;;;2.30;;
44774;SDS011;31340;51.402;0.016;2022-09-17T08:06:15;7.38;;;1.67;;
44774;SDS011;31340;51.402;0.016;2022-09-17T08:08:45;5.63;;;1.90;;
44774;SDS011;31340;51.402;0.016;2022-09-17T08:11:14;7.25;;;2.38;;
44774;SDS011;31340;51.402;0.016;2022-09-17T08:14:04;5.57;;;1.73;;
44774;SDS011;31340;51.402;0.016;2022-09-17T08:16:31;5.43;;;1.80;;
44774;SDS011;31340;51.402;0.016;2022-09-17T08:18:59;6.45;;;1.88;;
44774;SDS011;31340;51.402;0.016;2022-09-17T08:21:26;4.50;;;1.77;;
44774;SDS011;31340;51.402;0.016;2022-09-17T08:23:54;8.15;;;1.73;;
44774;SDS011;31340;51.402;0.016;2022-09-17T08:26:22;6.65;;;1.85;;
44774;SDS011;31340;51.402;0.016;2022-09-17T08:28:51;5.70;;;1.80;;
44774;SDS011;31340;51.402;0.016;2022-09-17T08:31:23;6.45;;;1.90;;
44774;SDS011;31340;51.402;0.016;2022-09-17T08:33:52;9.00;;;1.60;;
44774;SDS011;31340;51.402;0.016;2022-09-17T08:36:20;5.53;;;1.35;;
44774;SDS011;31340;51.402;0.016;2022-09-17T08:38:53;4.90;;;1.50;;
44774;SDS011;31340;51.402;0.016;2022-09-17T08:41:27;7.85;;;1.20;;
44774;SDS011;31340;51.402;0.016;2022-09-17T08:44:14;7.80;;;0.80;;
44774;SDS011;31340;51.402;0.016;2022-09-17T08:46:49;6.03;;;0.98;;
44774;SDS011;31340;51.402;0.016;2022-09-17T08:55:00;4.10;;;0.90;;
44774;SDS011;31340;51.402;0.016;2022-09-17T08:58:22;4.75;;;1.02;;
44774;SDS011;31340;51.402;0.016;2022-09-17T09:06:23;4.00;;;0.90;;
44774;SDS011;31340;51.402;0.016;2022-09-17T09:08:57;1.80;;;0.80;;
44774;SDS011;31340;51.402;0.016;2022-09-17T09:11:29;6.10;;;1.10;;
44774;SDS011;31340;51.402;0.016;2022-09-17T09:16:44;4.70;;;0.63;;
44774;SDS011;31340;51.402;0.016;2022-09-17T09:19:17;5.18;;;0.80;;
44774;SDS011;31340;51.402;0.016;2022-09-17T09:21:59;4.28;;;0.77;;
44774;SDS011;31340;51.402;0.016;2022-09-17T09:27:17;2.45;;;0.90;;
44774;SDS011;31340;51.402;0.016;2022-09-17T09:32:40;5.82;;;0.95;;
44774;SDS011;31340;51.402;0.016;2022-09-17T09:35:17;2.72;;;0.80;;
44774;SDS011;31340;51.402;0.016;2022-09-17T09:37:53;3.00;;;1.17;;
44774;SDS011;31340;51.402;0.016;2022-09-17T09:43:21;3.30;;;0.90;;
44774;SDS011;31340;51.402;0.016;2022-09-17T09:46:32;5.43;;;1.00;;
44774;SDS011;31340;51.402;0.016;2022-09-17T09:49:27;2.88;;;1.00;;
44774;SDS011;31340;51.402;0.016;2022-09-17T10:06:07;5.82;;;1.10;;
44774;SDS011;31340;51.402;0.016;2022-09-17T10:08:36;4.10;;;0.93;;
44774;SDS011;31340;51.402;0.016;2022-09-17T10:13:48;3.00;;;0.90;;
44774;SDS011;31340;51.402;0.016;2022-09-17T10:18:48;2.75;;;0.82;;
44774;SDS011;31340;51.402;0.016;2022-09-17T10:21:30;4.15;;;0.93;;
44774;SDS011;31340;51.402;0.016;2022-09-17T10:24:01;2.53;;;0.57;;
44774;SDS011;31340;51.402;0.016;2022-09-17T10:26:31;4.03;;;0.75;;
44774;SDS011;31340;51.402;0.016;2022-09-17T10:29:02;1.85;;;0.70;;
44774;SDS011;31340;51.402;0.016;2022-09-17T10:34:23;2.35;;;0.88;;
44774;SDS011;31340;51.402;0.016;2022-09-17T10:36:52;2.00;;;0.70;;
44774;SDS011;31340;51.402;0.016;2022-09-17T10:41:59;5.23;;;0.80;;
44774;SDS011;31340;51.402;0.016;2022-09-17T10:44:32;3.88;;;0.70;;
44774;SDS011;31340;51.402;0.016;2022-09-17T10:49:43;3.80;;;0.95;;
44774;SDS011;31340;51.402;0.016;2022-09-17T10:54:55;1.98;;;0.70;;
44774;SDS011;31340;51.402;0.016;2022-09-17T10:58:01;4.80;;;1.17;;
44774;SDS011;31340;51.402;0.016;2022-09-17T11:00:57;2.10;;;0.80;;
44774;SDS011;31340;51.402;0.016;2022-09-17T11:06:49;1.27;;;0.55;;
44774;SDS011;31340;51.402;0.016;2022-09-17T11:12:36;3.83;;;1.02;;
44774;SDS011;31340;51.402;0.016;2022-09-17T11:42:01;1.95;;;0.90;;
44774;SDS011;31340;51.402;0.016;2022-09-17T11:44:37;3.97;;;0.93;;
44774;SDS011;31340;51.402;0.016;2022-09-17T11:47:21;2.67;;;1.33;;
44774;SDS011;31340;51.402;0.016;2022-09-17T11:52:54;1.33;;;0.63;;
44774;SDS011;31340;51.402;0.016;2022-09-17T11:55:28;4.13;;;1.13;;
44774;SDS011;31340;51.402;0.016;2022-09-17T12:01:06;2.42;;;0.85;;
44774;SDS011;31340;51.402;0.016;2022-09-17T12:03:39;3.25;;;0.95;;
44774;SDS011;31340;51.402;0.016;2022-09-17T12:06:15;5.78;;;0.93;;
44774;SDS011;31340;51.402;0.016;2022-09-17T12:09:01;2.38;;;0.98;;
44774;SDS011;31340;51.402;0.016;2022-09-17T12:11:44;2.40;;;1.20;;
44774;SDS011;31340;51.402;0.016;2022-09-17T12:17:10;3.60;;;1.08;;
44774;SDS011;31340;51.402;0.016;2022-09-17T12:19:47;1.85;;;0.80;;
44774;SDS011;31340;51.402;0.016;2022-09-17T12:22:25;3.78;;;1.10;;
44774;SDS011;31340;51.402;0.016;2022-09-17T12:24:56;1.52;;;0.70;;
44774;SDS011;31340;51.402;0.016;2022-09-17T12:30:11;3.75;;;1.10;;
44774;SDS011;31340;51.402;0.016;2022-09-17T12:35:30;1.88;;;0.77;;
44774;SDS011;31340;51.402;0.016;2022-09-17T12:43:59;2.67;;;0.90;;
44774;SDS011;31340;51.402;0.016;2022-09-17T12:46:36;4.10;;;0.68;;
44774;SDS011;31340;51.402;0.016;2022-09-17T13:00:47;4.90;;;1.13;;
44774;SDS011;31340;51.402;0.016;2022-09-17T13:03:30;3.63;;;1.02;;
44774;SDS011;31340;51.402;0.016;2022-09-17T13:14:52;2.42;;;0.98;;
44774;SDS011;31340;51.402;0.016;2022-09-17T13:23:31;3.35;;;0.98;;
44774;SDS011;31340;51.402;0.016;2022-09-17T13:26:01;2.42;;;0.93;;
44774;SDS011;31340;51.402;0.016;2022-09-17T13:28:44;4.57;;;0.95;;
44774;SDS011;31340;51.402;0.016;2022-09-17T13:33:55;4.65;;;0.90;;
44774;SDS011;31340;51.402;0.016;2022-09-17T13:39:34;2.85;;;1.45;;
44774;SDS011;31340;51.402;0.016;2022-09-17T13:42:03;3.15;;;1.05;;
44774;SDS011;31340;51.402;0.016;2022-09-17T13:44:43;4.18;;;1.10;;
44774;SDS011;31340;51.402;0.016;2022-09-17T13:47:24;5.53;;;1.05;;
44774;SDS011;31340;51.402;0.016;2022-09-17T13:50:02;2.33;;;1.00;;
44774;SDS011;31340;51.402;0.016;2022-09-17T13:52:43;2.72;;;1.00;;
44774;SDS011;31340;51.402;0.016;2022-09-17T13:55:28;3.53;;;1.47;;
44774;SDS011;31340;51.402;0.016;2022-09-17T13:58:04;1.67;;;1.00;;
44774;SDS011;31340;51.402;0.016;2022-09-17T14:13:52;2.15;;;1.02;;
44774;SDS011;31340;51.402;0.016;2022-09-17T14:18:55;3.95;;;1.30;;
44774;SDS011;31340;51.402;0.016;2022-09-17T14:21:28;6.00;;;1.17;;
44774;SDS011;31340;51.402;0.016;2022-09-17T14:23:59;3.25;;;0.98;;
44774;SDS011;31340;51.402;0.016;2022-09-17T14:26:39;3.17;;;1.25;;
44774;SDS011;31340;51.402;0.016;2022-09-17T14:31:48;3.65;;;1.30;;
44774;SDS011;31340;51.402;0.016;2022-09-17T14:34:20;6.20;;;1.38;;
44774;SDS011;31340;51.402;0.016;2022-09-17T14:36:49;3.85;;;1.17;;
44774;SDS011;31340;51.402;0.016;2022-09-17T14:39:21;2.45;;;1.00;;
44774;SDS011;31340;51.402;0.016;2022-09-17T14:42:03;3.40;;;1.20;;
44774;SDS011;31340;51.402;0.016;2022-09-17T14:44:44;1.90;;;0.90;;
44774;SDS011;31340;51.402;0.016;2022-09-17T14:47:15;2.70;;;1.20;;
44774;SDS011;31340;51.402;0.016;2022-09-17T14:52:27;2.38;;;1.20;;
44774;SDS011;31340;51.402;0.016;2022-09-17T14:57:41;3.28;;;1.52;;
44774;SDS011;31340;51.402;0.016;2022-09-17T15:00:15;2.47;;;1.80;;
44774;SDS011;31340;51.402;0.016;2022-09-17T15:02:49;2.97;;;2.13;;
44774;SDS011;31340;51.402;0.016;2022-09-17T15:08:05;3.47;;;1.20;;
44774;SDS011;31340;51.402;0.016;2022-09-17T15:10:48;1.98;;;0.90;;
44774;SDS011;31340;51.402;0.016;2022-09-17T15:13:25;3.83;;;1.35;;
44774;SDS011;31340;51.402;0.016;2022-09-17T15:16:00;2.20;;;1.33;;
44774;SDS011;31340;51.402;0.016;2022-09-17T15:18:46;2.25;;;1.48;;
44774;SDS011;31340;51.402;0.016;2022-09-17T15:21:29;2.42;;;0.90;;
44774;SDS011;31340;51.402;0.016;2022-09-17T15:24:15;5.75;;;1.10;;
44774;SDS011;31340;51.402;0.016;2022-09-17T15:26:46;2.95;;;1.35;;
44774;SDS011;31340;51.402;0.016;2022-09-17T15:29:22;3.50;;;1.30;;
44774;SDS011;31340;51.402;0.016;2022-09-17T15:31:53;3.47;;;1.63;;
44774;SDS011;31340;51.402;0.016;2022-09-17T15:34:21;3.45;;;1.58;;
44774;SDS011;31340;51.402;0.016;2022-09-17T15:37:02;1.42;;;0.98;;
44774;SDS011;31340;51.402;0.016;2022-09-17T15:39:38;1.48;;;1.02;;
44774;SDS011;31340;51.402;0.016;2022-09-17T15:42:17;3.50;;;1.77;;
44774;SDS011;31340;51.402;0.016;2022-09-17T15:47:55;1.83;;;1.13;;
44774;SDS011;31340;51.402;0.016;2022-09-17T15:50:28;3.42;;;1.80;;
44774;SDS011;31340;51.402;0.016;2022-09-17T15:55:39;3.22;;;1.38;;
44774;SDS011;31340;51.402;0.016;2022-09-17T15:58:25;3.20;;;1.60;;
44774;SDS011;31340;51.402;0.016;2022-09-17T16:08:48;2.90;;;1.40;;
44774;SDS011;31340;51.402;0.016;2022-09-17T16:11:23;2.20;;;1.10;;
44774;SDS011;31340;51.402;0.016;2022-09-17T16:13:53;4.13;;;1.35;;
44774;SDS011;31340;51.402;0.016;2022-09-17T16:16:23;4.55;;;1.30;;
44774;SDS011;31340;51.402;0.016;2022-09-17T16:18:51;4.30;;;1.13;;
44774;SDS011;31340;51.402;0.016;2022-09-17T16:21:19;1.58;;;1.40;;
44774;SDS011;31340;51.402;0.016;2022-09-17T16:23:46;1.60;;;1.20;;
44774;SDS011;31340;51.402;0.016;2022-09-17T16:26:17;3.72;;;1.10;;
44774;SDS011;31340;51.402;0.016;2022-09-17T16:28:48;1.02;;;0.90;;
44774;SDS011;31340;51.402;0.016;2022-09-17T16:31:20;4.28;;;1.20;;
44774;SDS011;31340;51.402;0.016;2022-09-17T16:33:47;2.42;;;1.10;;
44774;SDS011;31340;51.402;0.016;2022-09-17T16:36:16;2.50;;;1.08;;
44774;SDS011;31340;51.402;0.016;2022-09-17T16:38:44;5.18;;;1.10;;
44774;SDS011;31340;51.402;0.016;2022-09-17T16:41:11;2.47;;;1.13;;
44774;SDS011;31340;51.402;0.016;2022-09-17T16:43:39;4.47;;;1.30;;
44774;SDS011;31340;51.402;0.016;2022-09-17T16:46:07;5.50;;;1.10;;
44774;SDS011;31340;51.402;0.016;2022-09-17T16:48:36;2.08;;;1.00;;
44774;SDS011;31340;51.402;0.016;2022-09-17T16:51:05;2.30;;;1.13;;
44774;SDS011;31340;51.402;0.016;2022-09-17T16:53:34;2.58;;;1.08;;
44774;SDS011;31340;51.402;0.016;2022-09-17T16:56:05;2.28;;;1.08;;
44774;SDS011;31340;51.402;0.016;2022-09-17T16:58:36;3.03;;;1.10;;
44774;SDS011;31340;51.402;0.016;2022-09-17T17:01:13;2.92;;;0.95;;
44774;SDS011;31340;51.402;0.016;2022-09-17T17:03:42;1.83;;;1.00;;
44774;SDS011;31340;51.402;0.016;2022-09-17T17:06:15;3.70;;;1.17;;
44774;SDS011;31340;51.402;0.016;2022-09-17T17:08:43;3.03;;;1.30;;
44774;SDS011;31340;51.402;0.016;2022-09-17T17:11:11;3.20;;;1.33;;
44774;SDS011;31340;51.402;0.016;2022-09-17T17:13:40;6.05;;;1.27;;
44774;SDS011;31340;51.402;0.016;2022-09-17T17:16:09;3.67;;;1.05;;
44774;SDS011;31340;51.402;0.016;2022-09-17T17:18:40;2.70;;;1.00;;
44774;SDS011;31340;51.402;0.016;2022-09-17T17:21:10;2.75;;;1.35;;
44774;SDS011;31340;51.402;0.016;2022-09-17T17:23:39;9.73;;;1.52;;
44774;SDS011;31340;51.402;0.016;2022-09-17T17:26:09;4.32;;;1.38;;
44774;SDS011;31340;51.402;0.016;2022-09-17T17:28:37;6.13;;;1.17;;
44774;SDS011;31340;51.402;0.016;2022-09-17T17:31:04;2.58;;;1.05;;
44774;SDS011;31340;51.402;0.016;2022-09-17T17:33:32;4.00;;;1.15;;
44774;SDS011;31340;51.402;0.016;2022-09-17T17:36:00;1.38;;;1.00;;
44774;SDS011;31340;51.402;0.016;2022-09-17T17:38:34;2.83;;;1.10;;
44774;SDS011;31340;51.402;0.016;2022-09-17T17:41:14;2.63;;;1.10;;
44774;SDS011;31340;51.402;0.016;2022-09-17T17:43:43;6.90;;;1.20;;
44774;SDS011;31340;51.402;0.016;2022-09-17T17:46:11;5.53;;;1.10;;
44774;SDS011;31340;51.402;0.016;2022-09-17T17:48:39;2.85;;;1.15;;
44774;SDS011;31340;51.402;0.016;2022-09-17T17:51:07;2.25;;;1.20;;
44774;SDS011;31340;51.402;0.016;2022-09-17T17:53:36;3.10;;;1.20;;
44774;SDS011;31340;51.402;0.016;2022-09-17T17:58:35;3.60;;;1.13;;
44774;SDS011;31340;51.402;0.016;2022-09-17T18:03:38;2.72;;;1.05;;
44774;SDS011;31340;51.402;0.016;2022-09-17T18:06:06;1.65;;;1.00;;
44774;SDS011;31340;51.402;0.016;2022-09-17T18:08:34;2.53;;;1.02;;
44774;SDS011;31340;51.402;0.016;2022-09-17T18:11:04;2.03;;;1.20;;
44774;SDS011;31340;51.402;0.016;2022-09-17T18:13:34;3.60;;;1.10;;
44774;SDS011;31340;51.402;0.016;2022-09-17T18:16:03;4.30;;;1.20;;
44774;SDS011;31340;51.402;0.016;2022-09-17T18:18:33;3.95;;;1.38;;
44774;SDS011;31340;51.402;0.016;2022-09-17T18:21:11;2.63;;;1.30;;
44774;SDS011;31340;51.402;0.016;2022-09-17T18:23:41;5.35;;;2.00;;
44774;SDS011;31340;51.402;0.016;2022-09-17T18:26:11;4.25;;;1.40;;
44774;SDS011;31340;51.402;0.016;2022-09-17T18:28:39;4.90;;;1.53;;
44774;SDS011;31340;51.402;0.016;2022-09-17T18:33:55;4.95;;;1.77;;
44774;SDS011;31340;51.402;0.016;2022-09-17T18:36:29;4.50;;;1.40;;
44774;SDS011;31340;51.402;0.016;2022-09-17T18:38:59;4.78;;;1.20;;
44774;SDS011;31340;51.402;0.016;2022-09-17T18:41:48;5.03;;;1.40;;
44774;SDS011;31340;51.402;0.016;2022-09-17T18:44:16;2.83;;;1.55;;
44774;SDS011;31340;51.402;0.016;2022-09-17T18:46:47;6.75;;;1.50;;
44774;SDS011;31340;51.402;0.016;2022-09-17T18:49:17;3.97;;;1.48;;
44774;SDS011;31340;51.402;0.016;2022-09-17T18:51:45;4.63;;;1.58;;
44774;SDS011;31340;51.402;0.016;2022-09-17T18:54:12;4.88;;;1.70;;
44774;SDS011;31340;51.402;0.016;2022-09-17T18:56:40;7.30;;;1.98;;
44774;SDS011;31340;51.402;0.016;2022-09-17T18:59:08;3.33;;;1.80;;
44774;SDS011;31340;51.402;0.016;2022-09-17T19:01:36;2.88;;;1.70;;
44774;SDS011;31340;51.402;0.016;2022-09-17T19:04:04;4.15;;;1.63;;